Salacak — 3FBM4 — position and weather

sailwx.info

Track history (hours):
 
Tides and Currents Weather Stations Pressure Air Temp Water Temp Dewpoint Dewpoint Depression Visibility Wind Speed Wind Dir Waves Ship Positions

Salacak

Last reported at 2016-Sep-24 14:32 UTC. Time now 2016-Sep-26 08:49 UTC.
Position N 46°27' E 030°55'.

Length 126 m; draft 8.6 m.

Type: Cargo ship. MMSI: 373532000.

Date/timePositionNaut miles runAvg speedWind from/ knotsBaromVisibWave heightAir tempDewpointWater temp
2016-Sep-24 14:32N 46°27' E 030°55'1 0.0
2016-Sep-23 06:33N 46°28' E 030°57'346 9.9
2016-Sep-21 19:33N 40°51' E 029°10'2 0.7
2016-Sep-21 16:33N 40°52' E 029°12'16 2.2
2016-Sep-21 09:33N 40°46' E 029°31'0 0.0
2016-Sep-21 08:27N 40°46' E 029°31'0 0.0
2016-Sep-21 05:33N 40°46' E 029°31'0 0.0
2016-Sep-21 03:32N 40°46' E 029°31'0 0.0
2016-Sep-21 02:32N 40°46' E 029°31'0 0.0
2016-Sep-20 13:32N 40°46' E 029°31'0 0.0
2016-Sep-20 10:26N 40°46' E 029°31'0 0.0
2016-Sep-20 07:08N 40°46' E 029°31'0 0.0
2016-Sep-19 19:26N 40°46' E 029°31'0 0.0
2016-Sep-19 18:31N 40°46' E 029°31'0 0.0
2016-Sep-19 16:19N 40°46' E 029°31'3 0.2
2016-Sep-19 02:25N 40°45' E 029°28'18 9.3
2016-Sep-19 00:32N 40°48' E 029°06'  
2016-Sep-16 17:33N 44°44' E 037°48'0 0.0
2016-Sep-16 15:34N 44°44' E 037°48'0 0.0
2016-Sep-16 12:33N 44°44' E 037°48'0 0.0
2016-Sep-16 09:34N 44°44' E 037°48'0 0.0
2016-Sep-16 07:34N 44°44' E 037°48'0 0.0
2016-Sep-16 03:33N 44°44' E 037°48'0 0.0
2016-Sep-16 02:34N 44°44' E 037°48'0 0.0
2016-Sep-16 00:33N 44°44' E 037°48'0 0.0
2016-Sep-15 22:33N 44°44' E 037°48'0 0.0
2016-Sep-15 21:34N 44°44' E 037°48'0 0.0
2016-Sep-15 20:33N 44°44' E 037°48'0 0.0
2016-Sep-15 18:34N 44°44' E 037°48'0 0.0
2016-Sep-15 12:34N 44°44' E 037°48'0 0.0
2016-Sep-15 11:33N 44°44' E 037°48'0 0.0
2016-Sep-15 04:33N 44°44' E 037°48'0 0.0
2016-Sep-15 03:33N 44°44' E 037°48'0 0.0
2016-Sep-15 01:33N 44°44' E 037°48'0 0.0
2016-Sep-14 22:34N 44°44' E 037°48'0 0.0
2016-Sep-14 21:34N 44°44' E 037°48'0 0.0
2016-Sep-14 17:33N 44°44' E 037°48'0 0.0
2016-Sep-14 16:33N 44°44' E 037°48'  
Track history (hours):
 
Tides and Currents Weather Stations Pressure Air Temp Water Temp Dewpoint Dewpoint Depression Visibility Wind Speed Wind Dir Waves Ship Positions

Salacak

Last reported at 2016-Sep-24 14:32 UTC. Time now 2016-Sep-26 08:49 UTC.
Position N 46°27' E 030°55'.

Length 126 m; draft 8.6 m.

Type: Cargo ship. MMSI: 373532000.

Date/timePositionNaut miles runAvg speedWind from/ knotsBaromVisibWave heightAir tempDewpointWater temp
2016-Sep-24 14:32N 46°27' E 030°55'1 0.0
2016-Sep-23 06:33N 46°28' E 030°57'346 9.9
2016-Sep-21 19:33N 40°51' E 029°10'2 0.7
2016-Sep-21 16:33N 40°52' E 029°12'16 2.2
2016-Sep-21 09:33N 40°46' E 029°31'0 0.0
2016-Sep-21 08:27N 40°46' E 029°31'0 0.0
2016-Sep-21 05:33N 40°46' E 029°31'0 0.0
2016-Sep-21 03:32N 40°46' E 029°31'0 0.0
2016-Sep-21 02:32N 40°46' E 029°31'0 0.0
2016-Sep-20 13:32N 40°46' E 029°31'0 0.0
2016-Sep-20 10:26N 40°46' E 029°31'0 0.0
2016-Sep-20 07:08N 40°46' E 029°31'0 0.0
2016-Sep-19 19:26N 40°46' E 029°31'0 0.0
2016-Sep-19 18:31N 40°46' E 029°31'0 0.0
2016-Sep-19 16:19N 40°46' E 029°31'3 0.2
2016-Sep-19 02:25N 40°45' E 029°28'18 9.3
2016-Sep-19 00:32N 40°48' E 029°06'  
2016-Sep-16 17:33N 44°44' E 037°48'0 0.0
2016-Sep-16 15:34N 44°44' E 037°48'0 0.0
2016-Sep-16 12:33N 44°44' E 037°48'0 0.0
2016-Sep-16 09:34N 44°44' E 037°48'0 0.0
2016-Sep-16 07:34N 44°44' E 037°48'0 0.0
2016-Sep-16 03:33N 44°44' E 037°48'0 0.0
2016-Sep-16 02:34N 44°44' E 037°48'0 0.0
2016-Sep-16 00:33N 44°44' E 037°48'0 0.0
2016-Sep-15 22:33N 44°44' E 037°48'0 0.0
2016-Sep-15 21:34N 44°44' E 037°48'0 0.0
2016-Sep-15 20:33N 44°44' E 037°48'0 0.0
2016-Sep-15 18:34N 44°44' E 037°48'0 0.0
2016-Sep-15 12:34N 44°44' E 037°48'0 0.0
2016-Sep-15 11:33N 44°44' E 037°48'0 0.0
2016-Sep-15 04:33N 44°44' E 037°48'0 0.0
2016-Sep-15 03:33N 44°44' E 037°48'0 0.0
2016-Sep-15 01:33N 44°44' E 037°48'0 0.0
2016-Sep-14 22:34N 44°44' E 037°48'0 0.0
2016-Sep-14 21:34N 44°44' E 037°48'0 0.0
2016-Sep-14 17:33N 44°44' E 037°48'0 0.0
2016-Sep-14 16:33N 44°44' E 037°48'  

Dump ship's entire track history